Strona główna
METAR-TAF:

METAR-TAF

Lotnisko :

Kingston, Ontario, Kanada

Szerokość geograficzna: 44-13N, Długość geograficzna: 076-36W, wysokość: 93 m

Aktualna obserwacja pogody

Raport powstał 27 minut temu, godzina 11:00 UTC
Wiatr 8 kt od północ
Temperatura -3°C
Wilgotność 74%
Ciśnienie 1008 hPa
Widzialność: 24.1 km
Mało chmury na wysokości 4000 ft
Zachmurzenie całkowite na wysokości 16000 ft

METAR: CYGK 191100Z 01008KT 15SM FEW040 OVC160 M03/M07 A2977 RMK SC1AC7 SLP086

czas: 06:27 (11:27 UTC)

Prognoza

Raport powstał 9 godziny i 49 minut temu, godzina 01:38 UTC
Prognoza ważna od 19 godzina 02 UTC do 19 godzina 04 UTC
Wiatr 10 kt od północny wschód
Widzialność: 10 km
Zachmurzenie całkowite na wysokości 12000 ft

TAF: CYGK 190138Z 1902/1904 04010KT P6SM OVC120 RMK NXT FCST WILL BE ISSUED AT 191245Z

Obserwacja i prognoza pogody dla ponad 4000 lotnisk (raport METAR i TAF).

Dostępne stacje oznaczono żółtymi i czerwonymi punktami na mapie.

Najedź kursorem aby zobaczyć nazwę stacji.

Kliknij aby zobaczyć obserwacje i prognozy pogody.

Aby zmienić mapę: kliknij na zielony przycisk z czarnym krzyżykiem, aby powiększyć; na zielony przycisk z myślnikiem, aby pomniejszyć; na zielone strzałki, aby przejść do map sąsiednich.


METAR-TAF: